Time;durP1;ratioP1;P1;durP2;ratioP2;P2;SDS_P1;SDS_P2;PMS_P1;PMS_P2;Temp;Humidity;BMP_temperature;BMP_pressure;BME280_temperature;BME280_humidity;BME280_pressure;Samples;Min_cycle;Max_cycle;Signal;HPM_P1;HPM_P2
2023/05/23 00:01:06;;;;;;;16.98;11.35;;;;;;;16.95;100.00;100727.19;8352930;28;20530;-60
2023/05/23 00:05:08;;;;;;;20.50;12.43;;;;;;;16.89;100.00;100732.47;8353186;28;20044;-58
2023/05/23 00:09:08;;;;;;;20.92;13.00;;;;;;;16.88;100.00;100725.31;8350405;28;20045;-59
2023/05/23 00:13:11;;;;;;;19.23;12.95;;;;;;;17.07;100.00;100722.16;8352863;28;20522;-59
2023/05/23 00:17:11;;;;;;;18.05;12.45;;;;;;;17.13;100.00;100719.59;8352841;28;20037;-58
2023/05/23 00:21:13;;;;;;;23.63;13.10;;;;;;;17.15;100.00;100719.41;8352376;28;20137;-59
2023/05/23 00:25:13;;;;;;;29.50;14.65;;;;;;;17.09;100.00;100722.84;8359515;28;20072;-60
2023/05/23 00:29:15;;;;;;;20.52;13.85;;;;;;;16.87;100.00;100729.09;8371521;28;20045;-61
2023/05/23 00:33:20;;;;;;;21.40;13.98;;;;;;;16.66;100.00;100723.34;8354399;28;20496;-61
2023/05/23 00:37:21;;;;;;;23.20;14.82;;;;;;;16.47;100.00;100721.00;8354398;28;20514;-61
2023/05/23 00:41:24;;;;;;;25.40;15.18;;;;;;;16.52;100.00;100721.31;8335974;28;20495;-60
2023/05/23 00:45:25;;;;;;;21.42;13.90;;;;;;;16.32;100.00;100728.16;8324182;28;20033;-63
2023/05/23 00:49:26;;;;;;;22.65;15.95;;;;;;;16.33;100.00;100719.81;8323629;28;20049;-60
2023/05/23 00:53:27;;;;;;;26.20;15.90;;;;;;;16.47;100.00;100726.47;8349305;28;20043;-58
2023/05/23 00:57:28;;;;;;;26.48;16.10;;;;;;;16.55;100.00;100723.69;8357090;28;20037;-58
2023/05/23 01:01:29;;;;;;;26.30;16.35;;;;;;;16.56;100.00;100730.88;8352941;28;20041;-58
2023/05/23 01:05:30;;;;;;;28.85;16.42;;;;;;;16.74;100.00;100731.53;8356768;28;20047;-58
2023/05/23 01:09:30;;;;;;;28.73;16.25;;;;;;;16.93;100.00;100739.31;8356002;28;20461;-58
2023/05/23 01:13:46;;;;;;;26.90;15.93;;;;;;;17.10;100.00;100735.47;8357072;28;20060;-58
2023/05/23 01:18:13;;;;;;;28.30;16.38;;;;;;;17.19;100.00;100739.88;8356201;28;20043;-58
2023/05/23 01:22:38;;;;;;;26.52;16.35;;;;;;;17.27;100.00;100737.94;8355201;28;20029;-58
2023/05/23 01:27:19;;;;;;;25.50;16.38;;;;;;;17.36;100.00;100736.88;8355859;28;20063;-59
2023/05/23 01:31:23;;;;;;;28.08;16.38;;;;;;;17.52;100.00;100733.25;8327111;28;20111;-58
2023/05/23 01:35:26;;;;;;;26.60;16.13;;;;;;;17.60;100.00;100738.69;8323247;28;20061;-58
2023/05/23 01:39:28;;;;;;;26.58;16.30;;;;;;;17.60;100.00;100741.41;8334328;28;20420;-59
2023/05/23 01:43:29;;;;;;;28.92;16.33;;;;;;;17.52;100.00;100741.47;8340181;28;20052;-58
2023/05/23 01:47:30;;;;;;;26.98;16.88;;;;;;;17.47;100.00;100749.34;8339810;28;20061;-58
2023/05/23 01:51:32;;;;;;;29.55;16.65;;;;;;;17.39;100.00;100754.81;8335507;28;20041;-58
2023/05/23 01:55:34;;;;;;;30.35;18.25;;;;;;;17.35;100.00;100753.47;8339850;28;20056;-58
2023/05/23 01:59:34;;;;;;;28.92;17.50;;;;;;;17.41;100.00;100771.88;8335140;28;20042;-60
2023/05/23 02:03:35;;;;;;;22.67;13.77;;;;;;;17.40;100.00;100764.72;8322936;28;20137;-60
2023/05/23 02:07:36;;;;;;;19.77;13.48;;;;;;;17.40;100.00;100764.72;8324944;28;20076;-61
2023/05/23 02:11:36;;;;;;;19.60;12.15;;;;;;;17.37;99.57;100771.41;8337480;28;20060;-61
2023/05/23 02:15:37;;;;;;;15.98;11.45;;;;;;;17.41;99.48;100777.34;8375300;28;20041;-61
2023/05/23 02:19:37;;;;;;;17.08;9.77;;;;;;;17.37;97.66;100776.00;8355590;28;20041;-60
2023/05/23 02:23:38;;;;;;;16.00;9.38;;;;;;;17.40;95.99;100782.00;8375126;28;20041;-62
2023/05/23 02:27:38;;;;;;;13.10;8.77;;;;;;;17.44;94.89;100777.03;8362978;28;20044;-62
2023/05/23 02:31:39;;;;;;;10.25;7.47;;;;;;;17.36;94.96;100796.19;8358181;28;20072;-62
2023/05/23 02:35:39;;;;;;;14.23;8.18;;;;;;;17.36;96.37;100790.72;8359827;28;20045;-60
2023/05/23 02:39:40;;;;;;;12.10;7.95;;;;;;;17.33;95.77;100793.81;8359312;28;20048;-62
2023/05/23 02:43:40;;;;;;;10.70;8.45;;;;;;;17.30;95.65;100796.88;8344572;28;20551;-59
2023/05/23 02:47:41;;;;;;;11.55;7.70;;;;;;;17.28;95.53;100798.94;8327870;28;20107;-59
2023/05/23 02:51:42;;;;;;;15.60;7.60;;;;;;;17.20;96.68;100785.31;8337468;28;20428;-59
2023/05/23 02:55:43;;;;;;;11.52;7.70;;;;;;;17.14;96.45;100792.31;8344752;28;20140;-59
2023/05/23 02:59:43;;;;;;;15.27;8.13;;;;;;;17.20;95.83;100790.78;8348051;28;20045;-58
2023/05/23 03:03:44;;;;;;;16.25;8.63;;;;;;;17.17;94.79;100791.16;8333947;28;20068;-59
2023/05/23 03:07:45;;;;;;;11.88;8.48;;;;;;;17.25;95.25;100791.09;8331466;28;20048;-58
2023/05/23 03:11:45;;;;;;;15.80;8.82;;;;;;;17.19;96.14;100800.84;8344188;28;20045;-58
2023/05/23 03:15:46;;;;;;;15.00;8.23;;;;;;;17.15;96.01;100793.19;8351383;28;20065;-58
2023/05/23 03:19:46;;;;;;;13.57;9.18;;;;;;;17.15;96.34;100799.50;8326650;28;20120;-58
2023/05/23 03:23:46;;;;;;;14.35;9.18;;;;;;;17.12;96.28;100801.75;8321965;28;20072;-58
2023/05/23 03:27:47;;;;;;;16.35;9.35;;;;;;;17.02;97.94;100806.56;8309540;28;20228;-58
2023/05/23 03:31:47;;;;;;;15.52;8.80;;;;;;;16.95;100.00;100813.72;8351787;28;20630;-58
2023/05/23 03:35:48;;;;;;;17.00;10.40;;;;;;;16.84;100.00;100816.84;8359647;28;20045;-58
2023/05/23 03:39:48;;;;;;;19.02;10.77;;;;;;;16.72;100.00;100818.22;8346574;28;20048;-61
2023/05/23 03:43:49;;;;;;;19.38;13.40;;;;;;;16.66;100.00;100824.38;8336032;28;20393;-61
2023/05/23 03:47:49;;;;;;;20.55;14.52;;;;;;;16.61;100.00;100826.75;8310140;28;20492;-61
2023/05/23 03:51:51;;;;;;;26.23;15.88;;;;;;;16.57;100.00;100819.94;8321659;28;20046;-59
2023/05/23 03:55:52;;;;;;;29.23;19.25;;;;;;;16.47;100.00;100830.19;8342349;28;20076;-59
2023/05/23 03:59:53;;;;;;;29.88;18.40;;;;;;;16.47;100.00;100825.56;8335891;28;20129;-61
2023/05/23 04:03:55;;;;;;;31.20;19.40;;;;;;;16.58;100.00;100832.56;8325419;28;20518;-61
2023/05/23 04:08:00;;;;;;;31.70;17.92;;;;;;;16.54;100.00;100825.75;8333205;28;20583;-61
2023/05/23 04:12:01;;;;;;;26.90;17.48;;;;;;;16.42;100.00;100829.78;8300755;28;20049;-63
2023/05/23 04:16:04;;;;;;;33.67;19.08;;;;;;;16.43;100.00;100828.75;8292683;28;20112;-63
2023/05/23 04:20:07;;;;;;;28.23;16.83;;;;;;;16.47;100.00;100831.00;8296305;28;20041;-63
2023/05/23 04:24:07;;;;;;;23.42;13.43;;;;;;;16.43;100.00;100842.41;8361250;28;20174;-63
2023/05/23 04:28:10;;;;;;;22.40;14.27;;;;;;;16.42;100.00;100846.16;8313691;28;20529;-62
2023/05/23 04:32:11;;;;;;;23.65;13.05;;;;;;;16.48;100.00;100843.66;8322133;28;20068;-62
2023/05/23 04:36:12;;;;;;;22.40;11.88;;;;;;;16.44;100.00;100842.28;8326193;28;20037;-62
2023/05/23 04:40:16;;;;;;;;;;;;;;;16.47;100.00;100841.09;8312545;28;20068;-63
2023/05/23 04:44:32;;;;;;;19.42;10.63;;;;;;;16.56;100.00;100840.91;8318078;28;19929;-63
2023/05/23 04:48:43;;;;;;;15.88;10.38;;;;;;;16.57;100.00;100844.50;8337335;28;20053;-62
2023/05/23 04:52:44;;;;;;;17.92;10.10;;;;;;;16.62;100.00;100839.41;8310252;28;20095;-63
2023/05/23 04:56:45;;;;;;;17.65;10.40;;;;;;;16.66;100.00;100843.47;8314311;28;20045;-64
2023/05/23 05:00:45;;;;;;;20.45;10.02;;;;;;;16.84;100.00;100844.16;8320728;28;20068;-58
2023/05/23 05:04:48;;;;;;;22.35;10.18;;;;;;;17.00;99.03;100846.84;8315691;28;20042;-59
2023/05/23 05:08:50;;;;;;;20.15;9.73;;;;;;;16.79;98.97;100852.00;8325518;28;20403;-61
2023/05/23 05:12:50;;;;;;;19.33;10.40;;;;;;;16.75;100.00;100856.97;8320209;28;20052;-60
2023/05/23 05:16:53;;;;;;;19.95;10.50;;;;;;;16.72;99.21;100861.91;8333697;28;20514;-61
2023/05/23 05:20:56;;;;;;;17.25;10.05;;;;;;;16.85;99.18;100859.50;8342319;28;20132;-60
2023/05/23 05:24:57;;;;;;;23.63;10.70;;;;;;;16.87;99.29;100865.66;8334631;28;20033;-60
2023/05/23 05:28:58;;;;;;;20.52;10.40;;;;;;;16.81;97.73;100866.34;8337053;28;20037;-61
2023/05/23 05:33:00;;;;;;;23.85;10.70;;;;;;;16.82;99.08;100870.75;8350971;28;20048;-60
2023/05/23 05:37:01;;;;;;;24.33;11.23;;;;;;;16.75;99.43;100873.34;8338573;28;20040;-61
2023/05/23 05:41:02;;;;;;;18.20;10.85;;;;;;;16.78;98.72;100880.34;8334392;28;20042;-60
2023/05/23 05:45:10;;;;;;;22.33;11.60;;;;;;;16.75;99.94;100880.69;8328245;28;20033;-61
2023/05/23 05:49:11;;;;;;;17.75;10.30;;;;;;;16.71;99.76;100888.34;8336869;28;20579;-60
2023/05/23 05:53:13;;;;;;;19.45;10.02;;;;;;;16.78;100.00;100883.94;8332092;28;20045;-60
2023/05/23 05:57:13;;;;;;;20.48;10.48;;;;;;;16.74;99.29;100881.72;8340221;28;20044;-63
2023/05/23 06:01:14;;;;;;;19.10;9.80;;;;;;;16.80;97.78;100891.94;8320347;28;20488;-63
2023/05/23 06:05:16;;;;;;;26.50;11.18;;;;;;;16.79;97.88;100891.09;8321858;28;20036;-63
2023/05/23 06:09:17;;;;;;;19.20;10.40;;;;;;;16.85;98.85;100903.19;8323735;28;20128;-63
2023/05/23 06:13:18;;;;;;;18.77;10.32;;;;;;;16.82;98.66;100896.22;8333477;28;20128;-63
2023/05/23 06:17:22;;;;;;;22.15;10.52;;;;;;;16.78;98.83;100902.19;8343090;28;20041;-62
2023/05/23 06:21:23;;;;;;;18.95;10.25;;;;;;;16.76;99.47;100896.03;8342301;28;20067;-63
2023/05/23 06:25:26;;;;;;;20.83;11.20;;;;;;;16.78;99.27;100894.84;8338828;28;20067;-63
2023/05/23 06:29:26;;;;;;;21.65;10.15;;;;;;;16.73;99.69;100907.28;8348441;28;20129;-63
2023/05/23 06:33:30;;;;;;;23.40;10.65;;;;;;;16.77;98.62;100908.69;8358718;28;20053;-63
2023/05/23 06:37:30;;;;;;;18.55;9.43;;;;;;;16.86;98.14;100907.63;8348635;28;20040;-63
2023/05/23 06:41:31;;;;;;;22.65;10.75;;;;;;;16.84;99.59;100912.44;8342285;28;20491;-63
2023/05/23 06:45:33;;;;;;;21.13;10.55;;;;;;;16.80;99.27;100919.25;8336108;28;20040;-63
2023/05/23 06:49:34;;;;;;;19.50;10.10;;;;;;;16.85;99.30;100920.44;8345539;28;20063;-63
2023/05/23 06:53:35;;;;;;;20.45;9.55;;;;;;;16.84;100.00;100937.00;8348185;28;20067;-63
2023/05/23 06:57:36;;;;;;;16.63;8.93;;;;;;;16.80;99.56;100930.19;8337143;28;20041;-63
2023/05/23 07:01:39;;;;;;;20.65;9.60;;;;;;;16.86;97.81;100934.94;8337943;28;20045;-62
2023/05/23 07:05:40;;;;;;;17.90;8.40;;;;;;;16.86;97.63;100940.41;8346461;28;20114;-63
2023/05/23 07:09:42;;;;;;;16.65;8.40;;;;;;;16.79;97.66;100951.16;8331713;28;20413;-62
2023/05/23 07:13:47;;;;;;;17.85;7.88;;;;;;;16.87;98.45;100958.50;8308835;28;20129;-62
2023/05/23 07:17:55;;;;;;;16.13;9.07;;;;;;;16.79;99.94;100956.63;8307776;28;20049;-62
2023/05/23 07:21:56;;;;;;;13.65;8.98;;;;;;;16.76;100.00;100953.38;8325077;28;20075;-63
2023/05/23 07:25:56;;;;;;;15.85;8.98;;;;;;;16.77;99.25;100957.84;8339436;28;20044;-63
2023/05/23 07:30:00;;;;;;;18.13;9.00;;;;;;;16.81;99.11;100960.03;8329766;28;20128;-63
2023/05/23 07:34:01;;;;;;;16.52;8.98;;;;;;;16.83;99.10;100962.59;8324869;28;20048;-63
2023/05/23 07:38:08;;;;;;;17.95;8.88;;;;;;;16.82;100.00;100961.75;8317045;28;20053;-62
2023/05/23 07:42:08;;;;;;;17.67;9.55;;;;;;;16.64;100.00;100965.66;8323709;28;20124;-62
2023/05/23 07:46:09;;;;;;;18.60;10.40;;;;;;;16.63;100.00;100966.69;8308179;28;20046;-63
2023/05/23 07:50:11;;;;;;;19.13;10.50;;;;;;;16.58;100.00;100966.31;8349515;28;20037;-63
2023/05/23 07:54:12;;;;;;;21.98;11.70;;;;;;;16.69;100.00;100971.47;8319542;28;20111;-62
2023/05/23 07:58:15;;;;;;;20.95;10.55;;;;;;;16.84;100.00;100969.78;8304506;28;20074;-63
2023/05/23 08:02:16;;;;;;;24.73;11.00;;;;;;;16.95;100.00;100967.56;8355238;28;20045;-63
2023/05/23 08:06:17;;;;;;;23.50;10.93;;;;;;;17.06;100.00;100975.41;8337060;28;20041;-62
2023/05/23 08:10:18;;;;;;;19.65;10.50;;;;;;;17.04;99.70;100972.00;8315668;28;20053;-63
2023/05/23 08:14:20;;;;;;;23.83;10.75;;;;;;;17.20;98.87;100971.16;8327935;28;20048;-63
2023/05/23 08:18:39;;;;;;;20.67;10.55;;;;;;;17.19;99.80;100981.22;8368767;28;20049;-63
2023/05/23 08:22:40;;;;;;;20.25;10.90;;;;;;;17.00;98.54;100984.31;8342749;28;20080;-63
2023/05/23 08:26:40;;;;;;;21.60;11.55;;;;;;;16.88;100.00;100998.44;8337906;28;20055;-62
2023/05/23 08:30:44;;;;;;;19.40;12.03;;;;;;;16.83;100.00;100998.09;8336003;28;20095;-63
2023/05/23 08:34:45;;;;;;;25.10;12.20;;;;;;;16.74;100.00;100993.66;8355425;28;20041;-63
2023/05/23 08:38:46;;;;;;;23.55;12.82;;;;;;;16.64;100.00;101009.31;8346744;28;20045;-63
2023/05/23 08:42:53;;;;;;;22.42;12.13;;;;;;;16.55;100.00;101013.06;8338877;28;20466;-62
2023/05/23 08:46:57;;;;;;;25.50;12.73;;;;;;;16.48;100.00;101012.03;8330517;28;20038;-62
2023/05/23 08:51:14;;;;;;;31.98;12.85;;;;;;;16.46;100.00;101019.50;8341268;28;20523;-63
2023/05/23 08:55:16;;;;;;;22.98;11.40;;;;;;;16.68;100.00;101018.91;8338593;28;20127;-61
2023/05/23 08:59:18;;;;;;;26.60;12.18;;;;;;;16.68;100.00;101016.19;8341472;28;20036;-60
2023/05/23 09:03:19;;;;;;;27.73;13.05;;;;;;;16.73;100.00;101021.97;8335581;28;20049;-60
2023/05/23 09:07:36;;;;;;;25.55;11.75;;;;;;;16.71;100.00;101034.97;8317986;28;20455;-60
2023/05/23 09:11:38;;;;;;;21.60;11.65;;;;;;;16.57;100.00;101035.59;8327891;28;20042;-60
2023/05/23 09:20:13;;;;;;;19.85;10.35;;;;;;;16.30;100.00;101041.25;8373481;27;20497;-60
2023/05/23 09:24:18;;;;;;;22.50;9.20;;;;;;;16.15;100.00;101053.81;8333263;28;20034;-59
2023/05/23 09:28:19;;;;;;;23.20;10.73;;;;;;;16.06;100.00;101050.19;8347461;28;20112;-59
2023/05/23 09:32:20;;;;;;;27.25;11.27;;;;;;;15.94;100.00;101056.94;8318687;28;20113;-59
2023/05/23 09:36:20;;;;;;;22.35;10.23;;;;;;;15.89;100.00;101061.19;8334704;28;20408;-59
2023/05/23 09:40:21;;;;;;;23.63;11.23;;;;;;;15.66;100.00;101069.91;8345907;28;20507;-59
2023/05/23 09:44:29;;;;;;;24.85;12.40;;;;;;;15.54;100.00;101068.47;8349403;28;20097;-59
2023/05/23 09:48:29;;;;;;;23.75;12.57;;;;;;;15.40;100.00;101060.84;8347306;28;20112;-59
2023/05/23 09:52:37;;;;;;;34.45;15.07;;;;;;;15.49;100.00;101067.19;8349036;28;20033;-59
2023/05/23 09:56:42;;;;;;;27.10;13.48;;;;;;;15.77;100.00;101061.44;8348519;28;20045;-59
2023/05/23 10:00:45;;;;;;;27.60;13.75;;;;;;;15.87;100.00;101066.81;8346937;28;20040;-62
2023/05/23 10:04:48;;;;;;;29.98;13.48;;;;;;;15.93;100.00;101068.03;8348527;28;20443;-62
2023/05/23 10:08:54;;;;;;;26.73;12.25;;;;;;;16.20;100.00;101070.56;8348122;28;20036;-63
2023/05/23 10:12:56;;;;;;;26.40;10.48;;;;;;;17.13;100.00;101071.22;8347576;28;20529;-63
2023/05/23 10:17:07;;;;;;;15.40;7.90;;;;;;;19.64;84.21;101068.22;8347956;28;20029;-63
2023/05/23 10:21:11;;;;;;;18.02;7.10;;;;;;;18.68;81.94;101075.22;8344779;28;20138;-62
2023/05/23 10:25:12;;;;;;;20.50;7.00;;;;;;;17.69;84.98;101073.13;8323557;28;20037;-62
2023/05/23 10:29:12;;;;;;;27.05;8.07;;;;;;;17.02;87.93;101087.94;8312131;28;20041;-62
2023/05/23 10:33:15;;;;;;;20.25;7.43;;;;;;;16.70;90.58;101093.31;8325421;28;20044;-62
2023/05/23 10:37:23;;;;;;;20.92;8.40;;;;;;;16.76;90.31;101095.38;8323956;28;20038;-62
2023/05/23 10:41:32;;;;;;;21.23;7.95;;;;;;;17.10;88.58;101101.59;8325215;28;20079;-62
2023/05/23 10:45:41;;;;;;;25.00;8.18;;;;;;;17.19;86.37;101090.53;8319066;28;20041;-63
2023/05/23 10:49:44;;;;;;;25.33;8.57;;;;;;;17.09;85.78;101100.78;8356503;28;20047;-62
2023/05/23 10:53:46;;;;;;;25.67;8.98;;;;;;;16.81;87.72;101110.22;8330129;28;20417;-62
2023/05/23 10:58:10;;;;;;;20.02;8.60;;;;;;;17.10;84.77;101115.25;8324501;28;20078;-62
2023/05/23 11:02:14;;;;;;;16.83;7.75;;;;;;;18.12;80.12;101095.47;8324082;28;20041;-62
2023/05/23 11:06:37;;;;;;;16.97;7.10;;;;;;;18.80;75.13;101118.50;8324496;28;20052;-62
2023/05/23 11:10:59;;;;;;;16.80;6.30;;;;;;;19.19;73.05;101119.28;8321946;28;20406;-58
2023/05/23 11:14:59;;;;;;;15.75;5.82;;;;;;;20.50;69.14;101116.06;8305945;28;20565;-58
2023/05/23 11:19:21;;;;;;;8.38;5.15;;;;;;;20.11;68.39;101109.94;8323481;28;20459;-58
2023/05/23 11:23:23;;;;;;;9.95;5.03;;;;;;;19.26;70.12;101120.31;8321662;28;20111;-58
2023/05/23 11:27:27;;;;;;;9.45;4.72;;;;;;;19.23;69.37;101120.63;8322473;28;20136;-58
2023/05/23 11:31:28;;;;;;;11.77;5.93;;;;;;;20.91;64.80;101119.97;8315458;28;20084;-58
2023/05/23 11:35:29;;;;;;;10.07;5.38;;;;;;;21.96;60.42;101114.56;8319191;28;20037;-59
2023/05/23 11:39:30;;;;;;;13.65;5.45;;;;;;;22.46;59.75;101114.31;8286242;28;20041;-58
2023/05/23 11:43:30;;;;;;;11.25;4.93;;;;;;;22.98;58.48;101098.06;8291616;28;20136;-58
2023/05/23 11:47:30;;;;;;;10.40;4.95;;;;;;;21.88;59.40;101114.75;8315540;28;20041;-58
2023/05/23 11:51:31;;;;;;;13.75;5.40;;;;;;;20.41;63.37;101095.22;8322315;28;20060;-58
2023/05/23 11:55:31;;;;;;;12.02;5.50;;;;;;;19.33;66.78;101104.81;8337638;28;20034;-58
2023/05/23 11:59:32;;;;;;;14.02;6.05;;;;;;;19.18;69.21;101106.59;8321861;28;20040;-60
2023/05/23 12:03:43;;;;;;;14.68;6.20;;;;;;;19.07;67.89;101108.91;8322648;28;20049;-60
2023/05/23 12:07:46;;;;;;;12.73;5.47;;;;;;;19.00;68.93;101111.53;8321536;28;20041;-60
2023/05/23 12:11:48;;;;;;;11.40;6.32;;;;;;;18.86;70.20;101112.31;8317210;28;20038;-60
2023/05/23 12:15:48;;;;;;;12.93;5.63;;;;;;;19.10;69.03;101114.91;8311590;28;20037;-61
2023/05/23 12:19:49;;;;;;;15.20;6.55;;;;;;;19.35;68.87;101108.25;8323597;28;20087;-60
2023/05/23 12:23:49;;;;;;;10.52;6.00;;;;;;;19.65;67.36;101103.72;8319877;28;20057;-57
2023/05/23 12:27:55;;;;;;;14.02;6.63;;;;;;;19.64;66.75;101103.91;8319019;28;20052;-57
2023/05/23 12:31:57;;;;;;;23.23;6.78;;;;;;;19.59;68.60;101109.06;8321596;28;20472;-57
2023/05/23 12:35:58;;;;;;;17.23;6.75;;;;;;;19.75;66.90;101114.41;8320593;28;20045;-57
2023/05/23 12:40:10;;;;;;;11.40;6.43;;;;;;;19.48;67.60;101113.97;8321450;28;20040;-57
2023/05/23 12:44:15;;;;;;;16.38;6.30;;;;;;;19.05;68.89;101103.63;8309625;28;20496;-57
2023/05/23 12:48:15;;;;;;;14.13;6.25;;;;;;;19.37;68.47;101111.63;8320420;28;20061;-60
2023/05/23 12:52:16;;;;;;;11.38;5.60;;;;;;;19.49;65.65;101118.41;8316972;28;20512;-61
2023/05/23 12:56:16;;;;;;;12.23;5.30;;;;;;;19.56;66.46;101109.44;8320113;28;20142;-60
2023/05/23 13:00:18;;;;;;;15.75;4.93;;;;;;;19.94;65.40;101108.44;8305966;28;20129;-60
2023/05/23 13:04:18;;;;;;;10.30;3.78;;;;;;;19.94;64.15;101108.44;8318603;28;20070;-60
2023/05/23 13:08:19;;;;;;;10.80;3.28;;;;;;;19.38;64.55;101118.84;8300764;28;20033;-61
2023/05/23 13:12:19;;;;;;;10.88;3.65;;;;;;;19.44;64.47;101123.59;8300201;28;20438;-60
2023/05/23 13:16:20;;;;;;;9.25;3.13;;;;;;;19.64;64.21;101115.69;8331638;28;20128;-62
2023/05/23 13:20:21;;;;;;;7.25;3.88;;;;;;;19.70;63.88;101116.88;8324144;28;20053;-60
2023/05/23 13:24:21;;;;;;;9.10;3.47;;;;;;;19.81;64.74;101119.16;8318775;28;20496;-60
2023/05/23 13:28:21;;;;;;;8.52;3.20;;;;;;;19.82;60.83;101120.91;8331298;28;20566;-58
2023/05/23 13:32:22;;;;;;;9.70;3.03;;;;;;;19.91;61.52;101119.78;8306357;28;20758;-57
2023/05/23 13:36:22;;;;;;;14.88;3.78;;;;;;;19.64;61.68;101123.09;8302440;28;20041;-57
2023/05/23 13:40:23;;;;;;;10.63;3.33;;;;;;;19.44;61.45;101118.13;8311791;28;20183;-57
2023/05/23 13:44:24;;;;;;;7.15;3.70;;;;;;;19.43;62.16;101116.41;8317768;28;20037;-59
2023/05/23 13:48:24;;;;;;;20.50;3.63;;;;;;;19.68;61.99;101132.66;8315716;28;20037;-61
2023/05/23 13:52:25;;;;;;;16.27;4.10;;;;;;;19.56;60.99;101136.88;8317370;28;20522;-63
2023/05/23 13:56:26;;;;;;;12.40;3.60;;;;;;;19.57;61.36;101127.63;8318798;28;20048;-61
2023/05/23 14:00:27;;;;;;;17.17;4.55;;;;;;;19.60;60.50;101117.13;8315895;28;20128;-61
2023/05/23 14:04:27;;;;;;;13.80;3.85;;;;;;;19.61;61.00;101118.81;8319698;28;20048;-60
2023/05/23 14:08:28;;;;;;;16.13;3.88;;;;;;;19.57;60.00;101116.66;8314792;28;20037;-61
2023/05/23 14:12:28;;;;;;;12.80;3.58;;;;;;;19.53;60.51;101121.66;8325692;28;20033;-61
2023/05/23 14:16:29;;;;;;;16.10;4.43;;;;;;;19.45;59.77;101125.31;8321887;28;20041;-61
2023/05/23 14:20:30;;;;;;;15.82;4.07;;;;;;;19.17;59.15;101124.09;8319687;28;20467;-60
2023/05/23 14:24:31;;;;;;;14.85;3.60;;;;;;;19.26;60.56;101117.56;8320701;28;20041;-60
2023/05/23 14:28:31;;;;;;;12.73;3.50;;;;;;;19.38;59.39;101107.88;8321837;28;20523;-61
2023/05/23 14:32:37;;;;;;;12.23;3.55;;;;;;;19.28;59.60;101118.22;8321902;28;20400;-60
2023/05/23 14:36:37;;;;;;;14.00;3.30;;;;;;;19.17;58.01;101115.88;8319207;28;20045;-61
2023/05/23 14:40:38;;;;;;;13.13;3.78;;;;;;;19.09;57.13;101115.91;8297223;28;20083;-61
2023/05/23 14:44:38;;;;;;;15.70;3.25;;;;;;;18.98;58.26;101110.88;8289135;28;20072;-59
2023/05/23 14:48:39;;;;;;;17.45;4.10;;;;;;;19.34;57.26;101112.00;8287807;28;20042;-59
2023/05/23 14:52:40;;;;;;;17.42;3.90;;;;;;;19.88;59.97;101098.19;8293834;28;20037;-62
2023/05/23 14:56:40;;;;;;;14.00;3.55;;;;;;;20.00;57.04;101092.03;8319304;28;20397;-63
2023/05/23 15:00:41;;;;;;;13.88;3.42;;;;;;;19.66;57.66;101099.06;8319893;28;20080;-62
2023/05/23 15:04:41;;;;;;;13.88;3.75;;;;;;;19.35;57.84;101104.63;8320550;28;20037;-60
2023/05/23 15:08:42;;;;;;;13.65;4.03;;;;;;;19.19;58.08;101113.78;8319044;28;20040;-60
2023/05/23 15:12:42;;;;;;;19.50;4.25;;;;;;;19.54;57.72;101097.81;8312166;28;20065;-60
2023/05/23 15:16:44;;;;;;;8.57;3.83;;;;;;;19.72;57.16;101095.56;8287062;28;20125;-60
2023/05/23 15:20:45;;;;;;;13.05;3.80;;;;;;;19.58;57.50;101096.41;8290780;28;20061;-60
2023/05/23 15:24:45;;;;;;;13.90;4.05;;;;;;;19.34;57.85;101106.53;8319664;28;20037;-60
2023/05/23 15:28:46;;;;;;;15.18;3.55;;;;;;;19.22;57.68;101101.63;8319444;28;20044;-60
2023/05/23 15:32:47;;;;;;;9.00;3.47;;;;;;;19.46;57.01;101098.75;8312221;28;20136;-60
2023/05/23 15:36:47;;;;;;;12.18;3.50;;;;;;;19.33;56.86;101087.50;8316213;28;20041;-60
2023/05/23 15:40:48;;;;;;;14.13;3.60;;;;;;;19.21;57.08;101089.78;8308833;28;20033;-61
2023/05/23 15:44:48;;;;;;;17.45;3.75;;;;;;;19.39;57.54;101084.91;8316551;28;20071;-60
2023/05/23 15:48:49;;;;;;;12.38;3.55;;;;;;;19.25;57.05;101080.16;8315855;28;20344;-60
2023/05/23 15:52:49;;;;;;;9.00;3.30;;;;;;;19.18;57.07;101075.59;8316491;28;20037;-60
2023/05/23 15:56:49;;;;;;;13.70;2.63;;;;;;;19.36;57.95;101082.53;8308086;28;20061;-60
2023/05/23 16:00:50;;;;;;;13.48;3.28;;;;;;;19.41;55.59;101071.00;8285508;28;20409;-61
2023/05/23 16:04:50;;;;;;;13.00;3.67;;;;;;;19.40;56.51;101086.59;8313315;28;20533;-61
2023/05/23 16:08:51;;;;;;;13.65;2.80;;;;;;;19.49;56.55;101082.75;8303281;28;20045;-61
2023/05/23 16:12:51;;;;;;;14.77;3.45;;;;;;;19.65;57.24;101075.41;8300298;28;20046;-62
2023/05/23 16:16:52;;;;;;;9.00;3.30;;;;;;;19.52;55.88;101087.88;8309581;28;20045;-61
2023/05/23 16:20:52;;;;;;;13.65;3.45;;;;;;;19.42;56.51;101090.00;8290237;28;20077;-61
2023/05/23 16:24:53;;;;;;;15.48;3.63;;;;;;;19.09;57.06;101090.41;8316320;28;20061;-62
2023/05/23 16:28:53;;;;;;;14.23;3.50;;;;;;;19.09;57.09;101094.00;8316654;28;20353;-61
2023/05/23 16:32:54;;;;;;;15.38;3.40;;;;;;;19.16;57.02;101088.66;8314617;28;20041;-61
2023/05/23 16:36:54;;;;;;;10.80;3.17;;;;;;;19.10;57.93;101087.50;8317353;28;20402;-62
2023/05/23 16:40:55;;;;;;;17.77;3.88;;;;;;;19.05;57.68;101083.56;8316362;28;20159;-62
2023/05/23 16:44:55;;;;;;;7.68;2.78;;;;;;;19.21;56.96;101084.31;8317338;28;20179;-61
2023/05/23 16:48:56;;;;;;;12.70;3.88;;;;;;;19.15;55.87;101078.69;8317382;28;20049;-62
2023/05/23 16:52:56;;;;;;;12.25;3.33;;;;;;;19.28;55.18;101081.75;8315363;28;20565;-62
2023/05/23 16:57:00;;;;;;;12.77;3.00;;;;;;;19.10;55.66;101090.22;8316623;28;20057;-62
2023/05/23 17:01:00;;;;;;;15.97;3.30;;;;;;;18.69;55.80;101090.63;8317448;28;20069;-62
2023/05/23 17:05:01;;;;;;;14.55;3.33;;;;;;;18.64;56.52;101095.81;8316110;28;20045;-62
2023/05/23 17:09:01;;;;;;;12.20;2.83;;;;;;;18.55;57.43;101095.00;8307266;28;20329;-62
2023/05/23 17:13:02;;;;;;;13.35;3.35;;;;;;;18.46;57.19;101098.78;8312401;28;20053;-62
2023/05/23 17:17:04;;;;;;;15.82;4.07;;;;;;;18.42;56.53;101102.91;8299204;28;20046;-62
2023/05/23 17:21:04;;;;;;;10.52;2.47;;;;;;;18.44;56.40;101098.09;8307560;28;20037;-62
2023/05/23 17:25:05;;;;;;;16.65;3.22;;;;;;;18.45;57.07;101102.53;8316265;28;20315;-62
2023/05/23 17:29:05;;;;;;;10.95;2.83;;;;;;;18.33;57.67;101114.03;8315763;28;20064;-62
2023/05/23 17:33:07;;;;;;;10.05;2.85;;;;;;;18.22;57.83;101107.06;8314460;28;20041;-62
2023/05/23 17:37:08;;;;;;;13.73;3.08;;;;;;;18.07;57.94;101103.31;8313109;28;20041;-62
2023/05/23 17:41:08;;;;;;;12.18;3.15;;;;;;;17.98;58.05;101109.84;8295132;28;20132;-62
2023/05/23 17:45:09;;;;;;;8.93;3.13;;;;;;;17.97;57.96;101107.28;8317185;28;20040;-62
2023/05/23 17:49:09;;;;;;;16.50;3.47;;;;;;;18.04;58.61;101113.75;8321587;28;20037;-62
2023/05/23 17:53:10;;;;;;;16.38;3.58;;;;;;;17.91;58.53;101114.31;8322529;28;20033;-62
2023/05/23 17:57:10;;;;;;;15.82;3.38;;;;;;;17.81;59.36;101124.56;8322267;28;20045;-62
2023/05/23 18:01:12;;;;;;;12.45;3.42;;;;;;;17.63;59.64;101131.25;8322369;28;20108;-60
2023/05/23 18:05:13;;;;;;;16.60;3.58;;;;;;;17.43;59.97;101136.19;8322294;28;20531;-60
2023/05/23 18:09:13;;;;;;;9.80;3.17;;;;;;;17.31;60.05;101132.91;8309649;28;20064;-60
2023/05/23 18:13:14;;;;;;;8.82;2.60;;;;;;;17.18;60.25;101131.69;8313066;28;20048;-59
2023/05/23 18:17:16;;;;;;;11.52;3.03;;;;;;;17.14;59.67;101130.31;8313643;28;20119;-59
2023/05/23 18:21:16;;;;;;;8.80;3.25;;;;;;;17.08;60.31;101133.72;8320187;28;20448;-60
2023/05/23 18:25:18;;;;;;;11.35;3.47;;;;;;;16.99;60.03;101134.72;8297383;28;20064;-59
2023/05/23 18:29:19;;;;;;;18.48;3.78;;;;;;;16.91;60.22;101140.16;8295595;28;20116;-59